Terminal Aerodrome Forecast
Issued by NWS

Home | Current Version | Previous Version | Text Only | Print | Product List | Glossary On
Versions: 1 2 3 4 5 6 7 8 9 10 11 12 13 14 15 16 17 18 19 20 21 22
000
FTUS43 KDLH 290500
TAFBRD
TAF
KBRD 290530Z 2906/3006 14005KT P6SM OVC006
      TEMPO 2906/2908 2SM -RA BR OVC005
     FM290800 08005KT 3SM -RA BR OVC005
     FM291600 08004KT 3SM -RA BR VCTS OVC008CB
     FM292100 VRB04KT P6SM VCTS BKN025CB
     FM300100 VRB03KT P6SM BKN050=

USA.gov is the U.S. government's official web portal to all federal, state and local government web resources and services.